עמוד ראשי
תמונות לווין תחזית 15-יוםאקליםתחזית ים סופות טרופיות ברק שדות תעופהשאלות נפוצות עלון אודות
מזג אוויר : אירופה אפריקה אמריקה הצפונית אמריקה הדרומית אסיה אוסטרליה-אוקיאניה אחר
שפות איש קשר

סלוניקי, יוון

קו רוחב: 40-31N, קו אורך: 022-58E, גובה: 8 m


METAR: LGTS 231550Z VRB02KT 9999 FEW020TCU SCT030 BKN080 23/19 Q1006 NOSIG
short-TAF: מיושן (37379 שעות)
long-TAF: LGTS 231100Z 2312/2412 20008KT 9999 SCT030 PROB40 TEMPO 2312/2322 5000 TSRA FEW016CB BKN025 BECMG 2322/2324 34010KT 9999 FEW030

זמן: 19:16 (16:16 UTC)

תצפית מזג אוויר נוכחית

הדו"ח נערך לפני 26 דקות, בשעה 15:50 UTC  
רוח 02 קשר רוח עם כיוונים משתנים
טמפרטורת 23°C
לחות 78%
לחץ 1006 hPa
ראות 10 km או יותר
מעט עננים בגובה 2000 ft , קומולוס מיגדלי.
עננים פזורים בגובה 3000 ft
עננים בינוניים בגובה 8000 ft

שינוי יחידות

תחזית

הדו"ח נערך לפני 5 שעות ו 4 דקות, בשעה 11:12 UTC  
תחזית בתוקף מ 23 ב 12 UTC עד 24 ב 12 UTC
רוח 08 קשר מכיוון דרום/דרום-מערב
ראות 10 km או יותר
עננים פזורים בגובה 3000 ft
הסתברות 40% :
זמנית מ -
23 ב 12 UTC עד 23 ב 22 UTC
ראות 5000 m
מעט עננים בגובה 1600 ft , קומולונימבוס.
עננים בינוניים בגובה 2500 ft
סופת רעמים גשם
יעשה מ
23 ב 22 UTC עד 23 ב 24 UTC
רוח 10 קשר מכיוון צפון/צפון-מערב
ראות 10 km או יותר
מעט עננים בגובה 3000 ft
המידע באתר זה מותנה של תניית פטור
מזג אוויר : אירופה אפריקה אמריקה הצפונית אמריקה הדרומית אסיה אוסטרליה-אוקיאניה אחר
תמונות לווין תחזית 15-יוםאקליםתחזית ים סופות טרופיות ברק שדות תעופהשאלות נפוצות שפות איש קשר עלון אודות